This is the latest recevied weather packets stored in our database for station/object W8RD. If no packets are shown the sender has not sent any weather packets the latest 10 day(s).
| Time | Temp. | Humidity | Pressure | Rain* | Wind** | Luminosity | Snow |
|---|---|---|---|---|---|---|---|
| 1777588666 | 27.22° C | 73% | 1012.1 hPa | 0 mm | - | 51 W/m² | - |
| 1777588064 | 27.22° C | 73% | 1012.2 hPa | 0 mm | - | 94 W/m² | - |
| 1777587458 | 27.22° C | 74% | 1012.1 hPa | 0 mm | - | 120 W/m² | - |
| 1777586857 | 27.22° C | 72% | 1012.2 hPa | 0 mm | - | 137 W/m² | - |
| 1777586255 | 27.22° C | 74% | 1012.1 hPa | 0 mm | - | 127 W/m² | - |
| 1777585653 | 27.78° C | 73% | 1012.3 hPa | 0 mm | - | 129 W/m² | - |
| 1777585050 | 27.78° C | 70% | 1012.3 hPa | 0 mm | - | 276 W/m² | - |
| 1777584450 | 27.78° C | 73% | 1012.3 hPa | 0 mm | - | 325 W/m² | - |
| 1777583845 | 28.33° C | 70% | 1012.5 hPa | 0 mm | - | 151 W/m² | - |
| 1777583241 | 27.78° C | 74% | 1012.5 hPa | 0 mm | - | 505 W/m² | - |
| 1777582639 | 27.78° C | 72% | 1012.6 hPa | 0 mm | - | 190 W/m² | - |
| 1777582038 | 27.78° C | 74% | 1012.6 hPa | 0 mm | - | 190 W/m² | - |
| 1777581437 | 27.22° C | 75% | 1013 hPa | 0 mm | - | 194 W/m² | - |
| 1777580833 | 28.33° C | 72% | 1012.9 hPa | 0 mm | - | 84 W/m² | - |
| 1777580229 | 28.33° C | 71% | 1013.1 hPa | 0 mm | - | 279 W/m² | - |
| 1777579628 | 28.89° C | 69% | 1012.9 hPa | 0 mm | - | 253 W/m² | - |
| 1777579028 | 28.89° C | 68% | 1012.9 hPa | 0 mm | - | 243 W/m² | - |
| 1777578423 | 29.44° C | 65% | 1012.9 hPa | 0 mm | - | 372 W/m² | - |
| 1777577821 | 29.44° C | 66% | 1012.9 hPa | 0 mm | - | 483 W/m² | - |
| 1777577219 | 30° C | 65% | 1013.3 hPa | 0 mm | - | 761 W/m² | - |
| 1777576616 | 28.89° C | 69% | 1013.1 hPa | 0 mm | - | 767 W/m² | - |
| 1777576014 | 28.89° C | 69% | 1013.4 hPa | 0 mm | - | 391 W/m² | - |
| 1777575412 | 30.56° C | 65% | 1013.1 hPa | 0 mm | - | 296 W/m² | - |
| 1777574810 | 29.44° C | 68% | 1013.4 hPa | 0 mm | - | 919 W/m² | - |
| 1777574210 | 28.89° C | 69% | 1013.6 hPa | 0 mm | - | 911 W/m² | - |
* Rain latest hour (hover to see other rain measurements)
** Current wind speed in m/s (hover to see current wind gust speed)